Time;durP1;ratioP1;P1;durP2;ratioP2;P2;SDS_P1;SDS_P2;PMS_P1;PMS_P2;Temp;Humidity;BMP_temperature;BMP_pressure;BME280_temperature;BME280_humidity;BME280_pressure;Samples;Min_cycle;Max_cycle;Signal;HPM_P1;HPM_P2
2022/11/20 00:01:18;;;;;;;28.92;13.05;;;-2.50;99.90;;;;;;5113781;27;20058;-47
2022/11/20 00:03:44;;;;;;;28.35;13.57;;;-2.40;99.90;;;;;;5109359;27;20042;-45
2022/11/20 00:06:13;;;;;;;28.65;14.45;;;-2.40;99.90;;;;;;5112260;27;20075;-46
2022/11/20 00:08:39;;;;;;;32.63;15.02;;;-2.40;99.90;;;;;;5113363;27;20051;-48
2022/11/20 00:11:11;;;;;;;31.33;14.85;;;-2.40;99.90;;;;;;5113355;27;20402;-46
2022/11/20 00:13:37;;;;;;;35.83;16.23;;;-2.40;99.90;;;;;;5113153;27;20047;-46
2022/11/20 00:16:05;;;;;;;29.85;15.43;;;-2.40;99.90;;;;;;5113007;28;20101;-46
2022/11/20 00:18:33;;;;;;;35.30;15.60;;;-2.30;99.90;;;;;;5115088;27;20610;-48
2022/11/20 00:21:15;;;;;;;32.20;15.50;;;-2.30;99.90;;;;;;5112623;27;20443;-47
2022/11/20 00:23:42;;;;;;;28.23;13.25;;;-2.30;99.90;;;;;;5096193;27;20478;-47
2022/11/20 00:26:11;;;;;;;28.02;12.18;;;-2.40;99.90;;;;;;5113855;27;20147;-47
2022/11/20 00:28:36;;;;;;;25.90;11.45;;;-2.40;99.90;;;;;;5113990;27;20091;-48
2022/11/20 00:31:03;;;;;;;20.38;9.35;;;-2.50;99.90;;;;;;5096146;28;20035;-46
2022/11/20 00:33:29;;;;;;;22.38;10.13;;;-2.40;99.90;;;;;;5113188;27;20036;-48
2022/11/20 00:36:03;;;;;;;19.73;9.77;;;-2.50;99.90;;;;;;5113516;27;20152;-48
2022/11/20 00:38:29;;;;;;;22.15;10.52;;;-2.50;99.90;;;;;;5112599;28;20108;-48
2022/11/20 00:41:00;;;;;;;22.60;10.43;;;-2.60;99.90;;;;;;5112683;27;20038;-49
2022/11/20 00:43:26;;;;;;;21.65;9.63;;;-2.60;99.90;;;;;;5112734;27;20102;-45
2022/11/20 00:45:59;;;;;;;23.50;10.43;;;-2.60;99.90;;;;;;5112447;28;20420;-47
2022/11/20 00:48:25;;;;;;;20.50;10.07;;;-2.60;99.90;;;;;;5092530;28;20390;-47
2022/11/20 00:50:51;;;;;;;29.65;12.68;;;-2.60;99.90;;;;;;5113684;27;20028;-48
2022/11/20 00:53:16;;;;;;;31.60;12.38;;;-2.60;99.90;;;;;;5111699;28;20470;-48
2022/11/20 00:55:42;;;;;;;30.90;13.20;;;-2.60;99.90;;;;;;5112868;27;20052;-49
2022/11/20 00:58:08;;;;;;;32.38;14.00;;;-2.70;99.90;;;;;;5112875;27;20046;-46
2022/11/20 01:00:34;;;;;;;28.05;13.20;;;-2.60;99.90;;;;;;5112255;27;20386;-47
2022/11/20 01:02:59;;;;;;;26.60;12.43;;;-2.70;99.90;;;;;;5112038;28;20110;-48
2022/11/20 01:05:25;;;;;;;29.73;12.55;;;-2.80;99.90;;;;;;5112578;27;20043;-48
2022/11/20 01:07:51;;;;;;;24.45;11.85;;;-2.70;99.90;;;;;;5111832;28;20034;-49
2022/11/20 01:10:17;;;;;;;21.52;10.75;;;-2.60;99.90;;;;;;5102161;28;20028;-47
2022/11/20 01:12:42;;;;;;;19.58;10.07;;;-2.70;99.90;;;;;;5110480;28;20405;-49
2022/11/20 01:15:08;;;;;;;19.63;9.73;;;-2.60;99.90;;;;;;5114417;27;20043;-47
2022/11/20 01:17:34;;;;;;;23.92;10.18;;;-2.60;99.90;;;;;;5112863;27;20044;-46
2022/11/20 01:20:00;;;;;;;26.15;11.65;;;-2.80;99.90;;;;;;5113236;27;20058;-48
2022/11/20 01:22:25;;;;;;;21.90;10.93;;;-3.00;99.90;;;;;;5112717;27;20465;-48
2022/11/20 01:24:51;;;;;;;28.70;12.20;;;-2.90;99.90;;;;;;5076967;28;20092;-49
2022/11/20 01:27:17;;;;;;;30.20;12.00;;;-3.00;99.90;;;;;;5113830;27;20121;-47
2022/11/20 01:29:42;;;;;;;23.75;11.75;;;-2.90;99.90;;;;;;5093990;28;20182;-46
2022/11/20 01:32:08;;;;;;;31.23;12.32;;;-3.10;99.90;;;;;;5111521;27;20509;-45
2022/11/20 01:34:34;;;;;;;29.83;12.80;;;-3.00;99.90;;;;;;5109852;28;20502;-47
2022/11/20 01:36:59;;;;;;;29.42;12.38;;;-3.10;99.90;;;;;;5112607;27;20039;-47
2022/11/20 01:39:26;;;;;;;24.10;11.82;;;-2.90;99.90;;;;;;5111745;28;20042;-50
2022/11/20 01:44:54;;;;;;;24.30;12.13;;;-3.10;99.90;;;;;;5110760;28;20046;-46
2022/11/20 01:47:29;;;;;;;24.40;11.13;;;-3.10;99.90;;;;;;5111603;27;20044;-47
2022/11/20 01:50:21;;;;;;;23.65;11.02;;;-3.00;99.90;;;;;;5110028;28;20402;-50
2022/11/20 01:52:58;;;;;;;26.77;11.02;;;-3.10;99.90;;;;;;5110524;27;20088;-46
2022/11/20 01:55:29;;;;;;;25.00;10.70;;;-3.00;99.90;;;;;;5111051;28;20075;-49
2022/11/20 01:57:55;;;;;;;23.42;10.32;;;-3.10;99.90;;;;;;5092816;28;20390;-48
2022/11/20 02:00:21;;;;;;;26.85;11.25;;;-3.00;99.90;;;;;;5110961;28;20390;-47
2022/11/20 02:03:09;;;;;;;26.73;10.65;;;-3.00;99.90;;;;;;5093594;28;20040;-46
2022/11/20 02:06:03;;;;;;;24.15;10.10;;;-3.10;99.90;;;;;;5113337;27;20501;-47
2022/11/20 02:08:30;;;;;;;23.60;10.27;;;-3.10;99.90;;;;;;5111610;27;20545;-45
2022/11/20 02:10:55;;;;;;;19.92;9.82;;;-3.00;99.90;;;;;;5112123;27;20031;-46
2022/11/20 02:16:08;;;;;;;;;;;-3.20;99.90;;;;;;5112560;27;20070;-45
2022/11/20 02:18:34;;;;;;;18.30;9.30;;;-3.20;99.90;;;;;;5111020;27;19921;-47
2022/11/20 02:21:12;;;;;;;25.20;10.88;;;-3.10;99.90;;;;;;5111275;27;20129;-49
2022/11/20 02:23:39;;;;;;;23.17;10.45;;;-3.10;99.90;;;;;;5111673;28;20043;-49
2022/11/20 02:26:09;;;;;;;22.10;9.73;;;-3.00;99.90;;;;;;5093018;28;20039;-47
2022/11/20 02:28:34;;;;;;;21.30;10.13;;;-3.10;99.90;;;;;;5111932;28;20122;-49
2022/11/20 02:31:01;;;;;;;22.92;10.30;;;-3.10;99.90;;;;;;5111289;28;20115;-46
2022/11/20 02:33:26;;;;;;;23.73;10.18;;;-3.00;99.90;;;;;;5111352;28;20039;-46
2022/11/20 02:35:52;;;;;;;22.38;10.48;;;-3.00;99.90;;;;;;5111107;28;20050;-48
2022/11/20 02:38:18;;;;;;;20.20;9.30;;;-3.00;99.90;;;;;;5111522;28;20044;-46
2022/11/20 02:40:43;;;;;;;23.75;10.20;;;-3.00;99.90;;;;;;5111027;28;20436;-50
2022/11/20 02:43:09;;;;;;;22.33;9.93;;;-3.00;99.90;;;;;;5110751;28;20043;-46
2022/11/20 02:45:35;;;;;;;23.27;10.50;;;-3.10;99.90;;;;;;5112535;28;20035;-45
2022/11/20 02:48:01;;;;;;;26.02;11.27;;;-3.00;99.90;;;;;;5114550;28;20047;-45
2022/11/20 02:50:27;;;;;;;23.33;10.40;;;-3.00;99.90;;;;;;5115056;28;20047;-46
2022/11/20 02:52:52;;;;;;;23.13;10.68;;;-3.00;99.90;;;;;;5114569;28;20494;-46
2022/11/20 02:55:18;;;;;;;24.05;11.75;;;-3.10;99.90;;;;;;5079533;27;20047;-45
2022/11/20 02:57:44;;;;;;;22.73;10.55;;;-3.10;99.90;;;;;;5115335;27;20122;-45
2022/11/20 03:00:10;;;;;;;24.65;11.35;;;-3.10;99.90;;;;;;5115567;27;20042;-45
2022/11/20 03:02:36;;;;;;;27.50;10.73;;;-3.10;99.90;;;;;;5116033;27;20044;-45
2022/11/20 03:05:01;;;;;;;22.10;10.32;;;-3.20;99.90;;;;;;5114960;27;20048;-46
2022/11/20 03:07:27;;;;;;;25.38;11.45;;;-3.30;99.90;;;;;;5115921;27;20084;-47
2022/11/20 03:09:53;;;;;;;20.85;10.07;;;-3.30;99.90;;;;;;5114601;27;20131;-46
2022/11/20 03:12:18;;;;;;;21.77;10.20;;;-3.30;99.90;;;;;;5115330;27;20067;-46
2022/11/20 03:14:44;;;;;;;24.80;10.75;;;-3.20;99.90;;;;;;5114582;27;20030;-46
2022/11/20 03:17:10;;;;;;;21.30;10.15;;;-3.20;99.90;;;;;;5112902;28;20039;-46
2022/11/20 03:19:35;;;;;;;24.83;10.02;;;-3.30;99.90;;;;;;5115239;27;20040;-48
2022/11/20 03:22:01;;;;;;;19.52;10.43;;;-3.20;99.90;;;;;;5084479;28;20051;-49
2022/11/20 03:24:27;;;;;;;21.35;10.27;;;-3.20;99.90;;;;;;5114030;27;20050;-46
2022/11/20 03:26:52;;;;;;;21.13;10.15;;;-3.20;99.90;;;;;;5114954;27;20066;-48
2022/11/20 03:29:18;;;;;;;25.20;11.05;;;-3.30;99.90;;;;;;5114349;27;20078;-48
2022/11/20 03:31:44;;;;;;;24.10;10.60;;;-3.30;99.90;;;;;;5114435;27;20028;-48
2022/11/20 03:34:11;;;;;;;22.77;9.85;;;-3.40;99.90;;;;;;5114225;27;20044;-48
2022/11/20 03:36:41;;;;;;;20.27;9.52;;;-3.60;99.90;;;;;;5114241;27;20508;-47
2022/11/20 03:39:07;;;;;;;25.48;10.20;;;-3.70;99.90;;;;;;5113964;28;20075;-48
2022/11/20 03:41:37;;;;;;;21.88;10.05;;;-3.60;99.90;;;;;;5113265;27;20043;-45
2022/11/20 03:44:05;;;;;;;22.42;9.93;;;-3.60;99.90;;;;;;5115309;27;20502;-51
2022/11/20 03:46:31;;;;;;;22.30;9.70;;;-3.40;99.90;;;;;;5114492;27;20085;-48
2022/11/20 03:48:57;;;;;;;23.85;10.02;;;-3.50;99.90;;;;;;5115818;27;20039;-45
2022/11/20 03:51:25;;;;;;;22.15;9.80;;;-3.60;99.90;;;;;;5095903;28;20531;-45
2022/11/20 03:53:52;;;;;;;21.33;9.77;;;-3.60;99.90;;;;;;5114915;27;20079;-45
2022/11/20 03:56:21;;;;;;;21.98;10.35;;;-3.60;99.90;;;;;;5113898;27;20120;-44
2022/11/20 03:58:47;;;;;;;22.23;10.85;;;-3.60;99.90;;;;;;5114316;27;20108;-44
2022/11/20 04:01:18;;;;;;;23.92;10.90;;;-3.60;99.90;;;;;;5113620;27;20031;-46
2022/11/20 04:03:45;;;;;;;20.08;9.43;;;-3.60;99.90;;;;;;5113186;28;20051;-48
2022/11/20 04:06:20;;;;;;;24.45;10.23;;;-3.70;99.90;;;;;;5113211;28;20043;-47
2022/11/20 04:08:46;;;;;;;21.30;10.07;;;-3.60;99.90;;;;;;5113127;28;20120;-48
2022/11/20 04:11:20;;;;;;;21.55;9.88;;;-3.60;99.90;;;;;;5114325;27;20039;-47
2022/11/20 04:13:54;;;;;;;23.00;9.80;;;-3.50;99.90;;;;;;5115673;27;20027;-47
2022/11/20 04:16:21;;;;;;;23.25;10.02;;;-3.50;99.90;;;;;;5113997;27;20039;-47
2022/11/20 04:18:47;;;;;;;22.25;9.32;;;-3.50;99.90;;;;;;5115090;27;20070;-48
2022/11/20 04:21:13;;;;;;;22.05;9.27;;;-3.60;99.90;;;;;;5113493;27;20463;-46
2022/11/20 04:23:39;;;;;;;19.35;10.02;;;-3.70;99.90;;;;;;5113626;27;20382;-46
2022/11/20 04:26:07;;;;;;;19.77;9.65;;;-3.60;99.90;;;;;;5096142;28;20495;-48
2022/11/20 04:28:33;;;;;;;18.92;9.27;;;-3.60;99.90;;;;;;5113329;27;20031;-50
2022/11/20 04:31:03;;;;;;;21.92;9.63;;;-3.70;99.90;;;;;;5114186;27;21204;-46
2022/11/20 04:33:28;;;;;;;18.60;9.50;;;-3.80;99.90;;;;;;5095032;28;20046;-45
2022/11/20 04:35:54;;;;;;;18.23;9.15;;;-3.90;99.90;;;;;;5114029;27;20483;-47
2022/11/20 04:38:20;;;;;;;19.08;9.48;;;-3.80;99.90;;;;;;5110292;28;20037;-46
2022/11/20 04:40:45;;;;;;;20.48;9.50;;;-3.70;99.90;;;;;;5113120;27;20047;-46
2022/11/20 04:43:11;;;;;;;19.90;9.00;;;-3.90;99.90;;;;;;5113680;27;20684;-50
2022/11/20 04:45:36;;;;;;;20.98;9.82;;;-3.90;99.90;;;;;;5112794;27;20084;-47
2022/11/20 04:48:02;;;;;;;20.65;9.35;;;-3.80;99.90;;;;;;5112742;27;20032;-47
2022/11/20 04:50:28;;;;;;;20.00;9.45;;;-3.80;99.90;;;;;;5112443;28;20031;-47
2022/11/20 04:52:53;;;;;;;25.05;9.15;;;-3.90;99.90;;;;;;5094019;28;20039;-46
2022/11/20 04:55:19;;;;;;;24.67;10.63;;;-3.80;99.90;;;;;;5112202;27;20248;-47
2022/11/20 04:57:45;;;;;;;21.75;9.48;;;-3.90;99.90;;;;;;5098246;28;20043;-47
2022/11/20 05:00:11;;;;;;;21.83;10.18;;;-4.00;99.90;;;;;;5112181;27;20506;-48
2022/11/20 05:02:36;;;;;;;19.60;9.30;;;-3.90;99.90;;;;;;5112200;27;20480;-47
2022/11/20 05:05:02;;;;;;;19.95;9.85;;;-3.90;99.90;;;;;;5093572;28;20067;-49
2022/11/20 05:07:28;;;;;;;20.05;9.40;;;-4.00;99.90;;;;;;5113118;27;20039;-46
2022/11/20 05:09:53;;;;;;;18.00;9.40;;;-3.90;99.90;;;;;;5114371;27;20031;-46
2022/11/20 05:12:19;;;;;;;18.77;9.45;;;-3.90;99.90;;;;;;5113143;27;20562;-45
2022/11/20 05:14:45;;;;;;;20.15;9.57;;;-3.90;99.90;;;;;;5112930;27;20411;-46
2022/11/20 05:17:12;;;;;;;21.38;9.88;;;-3.80;99.90;;;;;;5113680;27;20054;-46
2022/11/20 05:19:38;;;;;;;20.02;9.65;;;-3.90;99.90;;;;;;5112551;27;20047;-46
2022/11/20 05:22:05;;;;;;;24.20;10.10;;;-3.90;99.90;;;;;;5111521;28;20040;-45
2022/11/20 05:24:30;;;;;;;25.83;11.40;;;-3.90;99.90;;;;;;5110945;28;20166;-46
2022/11/20 05:26:56;;;;;;;23.10;10.07;;;-4.10;99.90;;;;;;5111564;27;20115;-48
2022/11/20 05:29:22;;;;;;;23.55;10.32;;;-4.10;99.90;;;;;;5111802;28;20036;-47
2022/11/20 05:31:47;;;;;;;22.35;9.75;;;-4.10;99.90;;;;;;5111744;27;20130;-46
2022/11/20 05:34:13;;;;;;;26.15;10.63;;;-4.20;99.90;;;;;;5111615;28;20040;-45
2022/11/20 05:36:39;;;;;;;25.02;11.32;;;-4.10;99.90;;;;;;5092877;28;20070;-49
2022/11/20 05:39:04;;;;;;;26.02;10.30;;;-4.10;99.90;;;;;;5110374;27;20035;-46
2022/11/20 05:41:30;;;;;;;25.08;10.68;;;-4.00;99.90;;;;;;5093685;28;20141;-49
2022/11/20 05:43:56;;;;;;;23.10;10.15;;;-4.10;99.90;;;;;;5110091;28;20157;-47
2022/11/20 05:46:22;;;;;;;18.33;9.27;;;-4.00;99.90;;;;;;5110819;27;20036;-47
2022/11/20 05:48:47;;;;;;;24.33;10.55;;;-4.10;99.90;;;;;;5112211;27;20038;-50
2022/11/20 05:51:17;;;;;;;23.02;10.02;;;-4.20;99.90;;;;;;5113250;27;20062;-48
2022/11/20 05:53:43;;;;;;;22.67;10.13;;;-4.00;99.90;;;;;;5111643;27;20488;-48
2022/11/20 05:56:15;;;;;;;23.92;9.82;;;-4.10;99.90;;;;;;5111932;28;20046;-46
2022/11/20 05:58:41;;;;;;;21.52;9.75;;;-4.10;99.90;;;;;;5110556;28;20093;-48
2022/11/20 06:01:19;;;;;;;25.55;10.20;;;-4.00;99.90;;;;;;5075855;28;20096;-46
2022/11/20 06:03:47;;;;;;;22.45;10.32;;;-4.00;99.90;;;;;;5111076;28;20081;-46
2022/11/20 06:06:16;;;;;;;22.08;9.85;;;-4.10;99.90;;;;;;5111168;28;20139;-46
2022/11/20 06:08:43;;;;;;;20.90;9.95;;;-4.00;99.90;;;;;;5110606;27;20038;-46
2022/11/20 06:11:10;;;;;;;21.02;9.85;;;-4.00;99.90;;;;;;5111000;28;20044;-46
2022/11/20 06:13:36;;;;;;;23.55;10.10;;;-4.10;99.90;;;;;;5110628;28;20067;-47
2022/11/20 06:16:02;;;;;;;23.48;10.05;;;-3.90;99.90;;;;;;5112078;27;20082;-46
2022/11/20 06:18:28;;;;;;;21.67;10.32;;;-4.00;99.90;;;;;;5095201;28;20042;-46
2022/11/20 06:21:05;;;;;;;20.42;10.30;;;-4.00;99.90;;;;;;5111271;28;20051;-51
2022/11/20 06:23:32;;;;;;;23.92;10.60;;;-4.00;99.90;;;;;;5112638;28;20047;-47
2022/11/20 06:26:06;;;;;;;22.73;10.00;;;-4.00;99.90;;;;;;5111472;28;20040;-48
2022/11/20 06:28:31;;;;;;;23.33;10.27;;;-4.10;99.90;;;;;;5111718;27;20035;-47
2022/11/20 06:30:58;;;;;;;23.30;10.75;;;-4.20;99.90;;;;;;5094066;28;20032;-47
2022/11/20 06:33:24;;;;;;;25.52;10.82;;;-4.10;99.90;;;;;;5111597;28;20040;-45
2022/11/20 06:35:49;;;;;;;26.15;11.98;;;-4.30;99.90;;;;;;5094046;28;20035;-45
2022/11/20 06:38:15;;;;;;;21.65;10.32;;;-4.20;99.90;;;;;;5111201;28;20118;-46
2022/11/20 06:40:41;;;;;;;23.05;11.50;;;-4.30;99.90;;;;;;5111280;28;20027;-47
2022/11/20 06:43:08;;;;;;;28.60;12.05;;;-4.10;99.90;;;;;;5112046;28;20394;-50
2022/11/20 06:45:34;;;;;;;26.58;13.60;;;-4.10;99.90;;;;;;5111372;28;20040;-47
2022/11/20 06:48:00;;;;;;;27.05;12.82;;;-4.20;99.90;;;;;;5111386;28;20106;-50
2022/11/20 06:50:25;;;;;;;26.38;12.90;;;-4.10;99.90;;;;;;5111883;28;20043;-47
2022/11/20 06:52:51;;;;;;;23.95;11.27;;;-4.10;99.90;;;;;;5110752;28;20050;-47
2022/11/20 06:55:16;;;;;;;25.67;11.40;;;-4.20;99.90;;;;;;5111011;28;20042;-46
2022/11/20 06:57:42;;;;;;;27.80;13.88;;;-4.20;99.90;;;;;;5109841;28;20069;-47
2022/11/20 07:00:08;;;;;;;25.58;11.70;;;-4.10;99.90;;;;;;5111241;28;20039;-45
2022/11/20 07:02:34;;;;;;;27.25;11.65;;;-4.00;99.90;;;;;;5110483;28;20043;-49
2022/11/20 07:05:00;;;;;;;26.52;11.10;;;-4.20;99.90;;;;;;5109423;28;20067;-46
2022/11/20 07:07:25;;;;;;;25.23;11.38;;;-4.10;99.90;;;;;;5110515;28;20084;-47
2022/11/20 07:09:51;;;;;;;23.48;10.65;;;-4.00;99.90;;;;;;5110341;28;20028;-47
2022/11/20 07:12:16;;;;;;;25.90;11.40;;;-3.90;99.90;;;;;;5092055;28;20041;-47
2022/11/20 07:14:42;;;;;;;27.33;11.77;;;-4.00;99.90;;;;;;5109841;28;20043;-46
2022/11/20 07:17:08;;;;;;;32.67;12.30;;;-3.90;99.90;;;;;;5091990;28;20047;-48
2022/11/20 07:19:33;;;;;;;23.38;11.88;;;-4.00;99.90;;;;;;5109924;28;20032;-47
2022/11/20 07:21:59;;;;;;;31.65;12.43;;;-3.90;99.90;;;;;;5110552;28;20100;-46
2022/11/20 07:24:25;;;;;;;24.75;11.45;;;-4.00;99.90;;;;;;5110176;28;20071;-47
2022/11/20 07:26:50;;;;;;;26.60;11.93;;;-4.10;99.90;;;;;;5110913;28;20042;-49
2022/11/20 07:29:16;;;;;;;23.75;12.65;;;-4.00;99.90;;;;;;5110472;28;20035;-46
2022/11/20 07:31:42;;;;;;;24.85;12.68;;;-4.00;99.90;;;;;;5109644;28;20115;-51
2022/11/20 07:34:08;;;;;;;23.67;11.93;;;-3.80;99.90;;;;;;5113346;28;20036;-44
2022/11/20 07:36:34;;;;;;;26.38;11.05;;;-3.80;99.90;;;;;;5113572;28;20046;-45
2022/11/20 07:39:00;;;;;;;24.23;11.13;;;-4.00;99.90;;;;;;5115965;27;20118;-45
2022/11/20 07:41:26;;;;;;;24.98;11.02;;;-3.90;99.90;;;;;;5115087;27;20165;-45
2022/11/20 07:43:51;;;;;;;28.20;11.88;;;-3.90;99.90;;;;;;5080382;27;20043;-46
2022/11/20 07:46:17;;;;;;;21.45;10.90;;;-4.10;99.90;;;;;;5114243;27;20047;-45
2022/11/20 07:48:43;;;;;;;25.63;11.93;;;-4.00;99.90;;;;;;5115072;27;20088;-47
2022/11/20 07:51:08;;;;;;;25.80;11.02;;;-4.00;99.90;;;;;;5114562;27;20036;-47
2022/11/20 07:53:34;;;;;;;28.58;11.65;;;-3.90;99.90;;;;;;5113911;27;20054;-45
2022/11/20 07:56:03;;;;;;;26.00;11.93;;;-3.90;99.90;;;;;;5115133;27;20054;-49
2022/11/20 07:58:29;;;;;;;29.48;11.63;;;-3.80;99.90;;;;;;5112911;28;20122;-46
2022/11/20 08:00:56;;;;;;;24.35;11.35;;;-3.90;99.90;;;;;;5113190;28;20478;-47
2022/11/20 08:03:21;;;;;;;26.85;12.77;;;-3.70;99.90;;;;;;5111798;28;20118;-45
2022/11/20 08:05:47;;;;;;;26.98;12.02;;;-3.70;99.90;;;;;;5113085;27;20131;-49
2022/11/20 08:08:12;;;;;;;27.60;12.40;;;-3.60;99.90;;;;;;5112958;28;20047;-48
2022/11/20 08:10:38;;;;;;;27.40;12.52;;;-3.70;99.90;;;;;;5113211;27;20034;-51
2022/11/20 08:15:50;;;;;;;21.45;10.95;;;-3.70;99.90;;;;;;5115161;27;20045;-47
2022/11/20 08:18:17;;;;;;;26.60;11.95;;;-3.90;99.90;;;;;;5112882;27;20114;-48
2022/11/20 08:20:43;;;;;;;23.60;11.25;;;-3.80;99.90;;;;;;5113913;27;20130;-47
2022/11/20 08:23:08;;;;;;;23.25;11.15;;;-3.60;99.90;;;;;;5113907;27;20537;-50
2022/11/20 08:25:36;;;;;;;26.25;11.98;;;-3.40;99.90;;;;;;5112512;27;20044;-47
2022/11/20 08:28:04;;;;;;;28.80;13.48;;;-3.30;99.90;;;;;;5113361;27;20089;-49
2022/11/20 08:30:30;;;;;;;25.75;12.43;;;-3.20;99.90;;;;;;5112540;28;20040;-50
2022/11/20 08:33:08;;;;;;;29.67;12.85;;;-3.30;99.90;;;;;;5113057;27;20095;-48
2022/11/20 08:35:37;;;;;;;28.77;13.18;;;-3.00;99.90;;;;;;5112836;28;20096;-50
2022/11/20 08:38:05;;;;;;;27.58;13.55;;;-3.00;99.90;;;;;;5112431;28;20052;-48
2022/11/20 08:40:31;;;;;;;27.70;12.23;;;-3.10;99.90;;;;;;5113387;27;20043;-49
2022/11/20 08:42:57;;;;;;;26.58;11.80;;;-2.90;99.90;;;;;;5114156;27;20039;-49
2022/11/20 08:45:23;;;;;;;29.17;13.15;;;-2.80;99.90;;;;;;5113276;27;20481;-46
2022/11/20 08:47:49;;;;;;;26.58;12.30;;;-2.70;99.90;;;;;;5113390;27;20040;-48
2022/11/20 08:50:16;;;;;;;27.95;12.80;;;-2.60;99.90;;;;;;5093217;27;20071;-47
2022/11/20 08:52:42;;;;;;;28.20;13.32;;;-2.70;99.90;;;;;;5111068;28;20043;-46
2022/11/20 08:55:08;;;;;;;26.00;12.90;;;-2.50;99.90;;;;;;5107472;28;20035;-47
2022/11/20 08:57:36;;;;;;;28.20;13.60;;;-2.50;99.90;;;;;;5091777;28;20040;-46
2022/11/20 09:00:04;;;;;;;30.95;14.15;;;-2.50;99.90;;;;;;5105108;28;20386;-47
2022/11/20 09:02:29;;;;;;;26.30;12.73;;;-2.50;99.90;;;;;;5105996;28;20090;-47
2022/11/20 09:04:56;;;;;;;25.60;12.65;;;-2.40;99.90;;;;;;5110722;28;20576;-48
2022/11/20 09:07:22;;;;;;;30.85;12.32;;;-2.30;99.90;;;;;;5089807;28;20032;-47
2022/11/20 09:09:47;;;;;;;29.63;13.82;;;-2.20;99.90;;;;;;5105950;28;20038;-48
2022/11/20 09:12:13;;;;;;;26.17;12.48;;;-2.20;99.90;;;;;;5090815;28;20078;-46
2022/11/20 09:14:39;;;;;;;24.95;12.30;;;-2.20;99.90;;;;;;5110409;28;20083;-46
2022/11/20 09:17:05;;;;;;;25.17;12.73;;;-1.90;99.90;;;;;;5109539;28;20043;-46
2022/11/20 09:19:30;;;;;;;28.92;13.00;;;-2.00;99.90;;;;;;5109604;28;20084;-46
2022/11/20 09:21:56;;;;;;;27.40;12.93;;;-1.90;99.90;;;;;;5110400;28;20032;-46
2022/11/20 09:24:22;;;;;;;27.35;13.05;;;-1.80;99.90;;;;;;5108160;28;20039;-48
2022/11/20 09:26:47;;;;;;;30.23;13.88;;;-1.70;99.90;;;;;;5107609;28;20039;-48
2022/11/20 09:29:13;;;;;;;29.40;13.93;;;-1.60;99.90;;;;;;5109785;28;20400;-48
2022/11/20 09:31:38;;;;;;;26.08;13.15;;;-1.80;99.90;;;;;;5108489;28;20035;-48
2022/11/20 09:34:04;;;;;;;28.67;12.77;;;-1.50;99.90;;;;;;5110167;28;20031;-51
2022/11/20 09:36:30;;;;;;;25.10;12.48;;;-1.40;99.90;;;;;;5108552;28;20857;-46
2022/11/20 09:38:56;;;;;;;27.85;12.95;;;-1.10;99.90;;;;;;5108053;28;20115;-48
2022/11/20 09:41:51;;;;;;;24.63;12.60;;;-1.40;99.90;;;;;;5109875;28;20053;-47
2022/11/20 09:44:37;;;;;;;26.20;12.70;;;-1.30;99.90;;;;;;5096462;28;20052;-50
2022/11/20 09:47:16;;;;;;;25.83;12.48;;;-1.30;99.90;;;;;;5108372;28;20040;-48
2022/11/20 09:49:57;;;;;;;23.92;12.30;;;-1.30;99.90;;;;;;5109260;28;20092;-47
2022/11/20 09:52:39;;;;;;;28.10;11.70;;;-1.20;99.90;;;;;;5109021;28;20478;-45
2022/11/20 09:55:11;;;;;;;25.95;12.52;;;-1.10;99.90;;;;;;5108491;28;20111;-48
2022/11/20 09:57:40;;;;;;;24.17;12.50;;;-0.90;99.90;;;;;;5091093;28;20044;-48
2022/11/20 10:00:13;;;;;;;25.10;12.50;;;-0.50;99.90;;;;;;5109671;28;20363;-47
2022/11/20 10:02:49;;;;;;;22.25;11.75;;;-0.10;99.90;;;;;;5109645;28;20035;-47
2022/11/20 10:05:19;;;;;;;22.17;11.43;;;0.30;99.90;;;;;;5108801;28;20039;-48
2022/11/20 10:08:25;;;;;;;20.17;11.27;;;0.40;99.90;;;;;;5109427;28;20035;-47
2022/11/20 10:11:02;;;;;;;21.38;11.13;;;0.70;99.90;;;;;;5106983;28;20126;-48
2022/11/20 10:14:00;;;;;;;20.85;11.38;;;1.20;99.90;;;;;;5105455;28;20040;-46
2022/11/20 10:16:53;;;;;;;17.02;10.05;;;1.60;99.90;;;;;;5107213;28;20043;-48
2022/11/20 10:19:51;;;;;;;20.45;10.48;;;2.00;99.90;;;;;;5109452;28;20385;-49
2022/11/20 10:22:51;;;;;;;16.35;9.68;;;2.50;99.90;;;;;;5109116;28;20051;-52
2022/11/20 10:25:23;;;;;;;18.63;11.10;;;2.80;99.90;;;;;;5107759;28;20092;-49
2022/11/20 10:28:12;;;;;;;18.25;11.13;;;3.30;99.90;;;;;;5074354;28;20497;-49
2022/11/20 10:30:42;;;;;;;19.08;10.55;;;3.40;99.90;;;;;;5107186;28;20031;-47
2022/11/20 10:33:22;;;;;;;15.85;10.13;;;3.80;99.90;;;;;;5107297;28;20039;-46
2022/11/20 10:36:02;;;;;;;16.42;9.93;;;3.70;99.90;;;;;;5088647;28;20048;-46
2022/11/20 10:38:43;;;;;;;16.83;9.90;;;3.50;99.90;;;;;;5105388;28;20544;-49
2022/11/20 10:41:25;;;;;;;14.80;9.88;;;3.30;99.90;;;;;;5101014;28;20105;-50
2022/11/20 10:44:01;;;;;;;15.13;9.55;;;2.70;99.90;;;;;;5100628;28;20089;-47
2022/11/20 10:46:43;;;;;;;15.90;9.63;;;2.20;99.90;;;;;;5106064;28;20039;-47
2022/11/20 10:49:18;;;;;;;15.88;9.18;;;1.80;99.90;;;;;;5108666;28;20031;-45
2022/11/20 10:51:59;;;;;;;15.07;9.65;;;1.50;99.90;;;;;;5100641;28;20099;-45
2022/11/20 10:54:43;;;;;;;16.83;10.30;;;1.40;99.90;;;;;;5097405;28;20398;-47
2022/11/20 10:57:23;;;;;;;17.00;10.15;;;1.20;99.90;;;;;;5102523;28;20210;-48
2022/11/20 11:00:05;;;;;;;17.85;10.43;;;1.10;99.90;;;;;;5102160;28;20375;-51
2022/11/20 11:02:39;;;;;;;17.00;10.32;;;1.00;99.90;;;;;;5109268;28;20032;-48
2022/11/20 11:05:30;;;;;;;18.08;10.38;;;0.90;99.90;;;;;;5068698;28;20073;-49
2022/11/20 11:07:57;;;;;;;18.63;10.40;;;0.90;99.90;;;;;;5114192;27;20065;-49
2022/11/20 11:10:35;;;;;;;58.15;11.88;;;0.90;99.90;;;;;;5080081;28;20046;-50
2022/11/20 11:13:01;;;;;;;23.13;10.10;;;0.90;99.90;;;;;;5093506;28;20035;-49
2022/11/20 11:15:36;;;;;;;21.20;10.38;;;0.60;99.90;;;;;;5115054;27;20110;-51
2022/11/20 11:18:02;;;;;;;23.98;9.75;;;0.80;99.90;;;;;;5097759;28;20047;-48
2022/11/20 11:20:29;;;;;;;16.80;9.23;;;0.90;99.90;;;;;;5113655;27;20097;-48
2022/11/20 11:22:59;;;;;;;16.73;8.85;;;0.90;99.90;;;;;;5115416;27;20088;-48
2022/11/20 11:25:28;;;;;;;24.08;9.77;;;1.40;99.90;;;;;;5114107;27;20478;-48
2022/11/20 11:27:56;;;;;;;17.77;10.45;;;1.50;99.90;;;;;;5113867;27;20053;-47
2022/11/20 11:30:24;;;;;;;17.70;9.80;;;1.70;99.90;;;;;;5114173;27;20031;-49
2022/11/20 11:32:50;;;;;;;19.77;9.65;;;1.90;99.90;;;;;;5115296;27;20031;-48
2022/11/20 11:35:27;;;;;;;17.92;9.27;;;2.40;99.90;;;;;;5111698;27;20422;-47
2022/11/20 11:38:03;;;;;;;27.13;9.63;;;2.40;99.90;;;;;;5108349;27;20042;-45
2022/11/20 11:40:32;;;;;;;15.85;9.07;;;2.60;99.90;;;;;;5109316;28;20040;-49
2022/11/20 11:43:01;;;;;;;18.48;9.95;;;2.80;99.90;;;;;;5108877;27;20046;-46
2022/11/20 11:45:27;;;;;;;18.08;10.55;;;3.30;99.90;;;;;;5108769;27;20075;-47
2022/11/20 11:47:56;;;;;;;16.38;10.35;;;3.20;99.90;;;;;;5110246;27;20043;-46
2022/11/20 11:50:24;;;;;;;19.00;10.20;;;3.00;99.90;;;;;;5110260;27;20441;-48
2022/11/20 11:53:07;;;;;;;19.73;10.75;;;2.80;99.90;;;;;;5110463;27;20032;-46
2022/11/20 11:55:39;;;;;;;18.23;10.50;;;2.50;99.90;;;;;;5108275;27;20039;-48
2022/11/20 11:58:44;;;;;;;17.00;10.20;;;2.30;99.90;;;;;;5108489;27;20300;-49
2022/11/20 12:01:41;;;;;;;16.42;9.98;;;2.10;99.90;;;;;;5104536;28;20046;-47
2022/11/20 12:04:37;;;;;;;17.30;10.38;;;2.00;99.90;;;;;;5104830;28;20047;-49
2022/11/20 12:07:14;;;;;;;17.23;9.77;;;1.90;99.90;;;;;;5105788;28;20050;-48
2022/11/20 12:09:48;;;;;;;17.27;9.35;;;2.00;99.90;;;;;;5105859;28;20378;-46
2022/11/20 12:12:18;;;;;;;;;;;1.90;99.90;;;;;;5106412;28;20119;-46
2022/11/20 12:14:49;;;;;;;15.25;9.13;;;1.90;99.90;;;;;;5104167;28;19923;-49
2022/11/20 12:17:15;;;;;;;17.38;9.63;;;1.90;99.90;;;;;;5108995;28;20040;-47
2022/11/20 12:19:42;;;;;;;17.75;10.00;;;1.70;99.90;;;;;;5105734;28;20483;-47
2022/11/20 12:22:13;;;;;;;14.55;9.25;;;1.90;99.90;;;;;;5106130;28;20193;-46
2022/11/20 12:24:57;;;;;;;15.93;10.00;;;1.70;99.90;;;;;;5091214;28;20095;-48
2022/11/20 12:27:26;;;;;;;;;;;1.70;99.90;;;;;;5113484;27;20483;-46
2022/11/20 12:30:20;;;;;;;15.32;8.60;;;1.70;99.90;;;;;;5111110;27;19919;-47
2022/11/20 12:33:15;;;;;;;17.20;10.25;;;1.70;99.90;;;;;;5109178;27;20562;-45
2022/11/20 12:36:23;;;;;;;18.92;10.23;;;1.70;99.90;;;;;;5114168;27;20125;-49
2022/11/20 12:39:12;;;;;;;18.98;10.48;;;1.70;99.90;;;;;;5113954;27;20509;-50
2022/11/20 12:45:17;;;;;;;18.50;10.88;;;1.80;99.90;;;;;;5093380;28;20051;-48
2022/11/20 12:47:51;;;;;;;17.90;10.45;;;1.70;99.90;;;;;;5112419;28;20055;-45
2022/11/20 12:50:36;;;;;;;17.02;10.63;;;1.70;99.90;;;;;;5113885;27;20114;-46
2022/11/20 12:53:20;;;;;;;17.92;10.00;;;1.70;99.90;;;;;;5113093;27;20474;-46
2022/11/20 12:55:53;;;;;;;15.60;9.70;;;1.70;99.90;;;;;;5113555;27;20130;-45
2022/11/20 12:58:50;;;;;;;17.13;9.82;;;1.60;99.90;;;;;;5108928;27;20116;-45